sensor_id;sensor_type;location;lat;lon;timestamp;pressure;altitude;pressure_sealevel;temperature;humidity
7660;BME280;3872;47.902;8.162;2024-03-25T00:01:33;91199.09;;;9.17;59.77
7660;BME280;3872;47.902;8.162;2024-03-25T00:04:00;91199.69;;;9.36;57.61
7660;BME280;3872;47.902;8.162;2024-03-25T00:06:26;91210.75;;;8.35;63.08
7660;BME280;3872;47.902;8.162;2024-03-25T00:08:52;91203.81;;;9.28;58.74
7660;BME280;3872;47.902;8.162;2024-03-25T00:11:18;91208.63;;;9.35;57.51
7660;BME280;3872;47.902;8.162;2024-03-25T00:13:45;91201.09;;;9.42;57.15
7660;BME280;3872;47.902;8.162;2024-03-25T00:16:12;91197.06;;;9.75;56.41
7660;BME280;3872;47.902;8.162;2024-03-25T00:18:38;91200.06;;;9.21;58.35
7660;BME280;3872;47.902;8.162;2024-03-25T00:21:04;91198.06;;;10.05;55.72
7660;BME280;3872;47.902;8.162;2024-03-25T00:23:31;91203.13;;;9.85;55.82
7660;BME280;3872;47.902;8.162;2024-03-25T00:25:56;91198.88;;;10.14;54.77
7660;BME280;3872;47.902;8.162;2024-03-25T00:28:23;91193.97;;;9.82;55.67
7660;BME280;3872;47.902;8.162;2024-03-25T00:30:48;91194.09;;;9.68;56.10
7660;BME280;3872;47.902;8.162;2024-03-25T00:33:17;91190.66;;;9.59;56.12
7660;BME280;3872;47.902;8.162;2024-03-25T00:35:42;91186.50;;;9.58;56.79
7660;BME280;3872;47.902;8.162;2024-03-25T00:38:11;91186.84;;;9.74;56.37
7660;BME280;3872;47.902;8.162;2024-03-25T00:40:36;91187.03;;;9.77;55.17
7660;BME280;3872;47.902;8.162;2024-03-25T00:43:04;91182.53;;;9.78;54.94
7660;BME280;3872;47.902;8.162;2024-03-25T00:45:30;91186.50;;;9.27;57.17
7660;BME280;3872;47.902;8.162;2024-03-25T00:47:56;91180.09;;;9.11;58.09
7660;BME280;3872;47.902;8.162;2024-03-25T00:50:23;91186.66;;;9.31;57.54
7660;BME280;3872;47.902;8.162;2024-03-25T00:52:50;91182.63;;;9.16;58.30
7660;BME280;3872;47.902;8.162;2024-03-25T00:55:16;91183.34;;;8.63;59.86
7660;BME280;3872;47.902;8.162;2024-03-25T00:57:42;91173.13;;;9.07;58.42
7660;BME280;3872;47.902;8.162;2024-03-25T01:00:10;91166.25;;;9.19;58.15
7660;BME280;3872;47.902;8.162;2024-03-25T01:02:36;91175.63;;;8.22;61.90
7660;BME280;3872;47.902;8.162;2024-03-25T01:05:03;91171.25;;;8.76;59.92
7660;BME280;3872;47.902;8.162;2024-03-25T01:07:31;91171.13;;;8.37;59.77
7660;BME280;3872;47.902;8.162;2024-03-25T01:09:57;91174.78;;;8.49;61.89
7660;BME280;3872;47.902;8.162;2024-03-25T01:12:24;91163.44;;;8.40;61.40
7660;BME280;3872;47.902;8.162;2024-03-25T01:14:50;91168.22;;;9.14;57.95
7660;BME280;3872;47.902;8.162;2024-03-25T01:17:16;91171.13;;;8.81;57.38
7660;BME280;3872;47.902;8.162;2024-03-25T01:19:42;91170.59;;;8.12;60.16
7660;BME280;3872;47.902;8.162;2024-03-25T01:22:09;91172.84;;;8.41;60.72
7660;BME280;3872;47.902;8.162;2024-03-25T01:24:36;91161.25;;;8.56;58.95
7660;BME280;3872;47.902;8.162;2024-03-25T01:27:03;91165.16;;;8.89;57.06
7660;BME280;3872;47.902;8.162;2024-03-25T01:29:29;91165.34;;;7.63;61.24
7660;BME280;3872;47.902;8.162;2024-03-25T01:31:55;91158.69;;;8.42;58.37
7660;BME280;3872;47.902;8.162;2024-03-25T01:34:24;91147.78;;;8.71;57.22
7660;BME280;3872;47.902;8.162;2024-03-25T01:36:50;91148.06;;;8.47;57.36
7660;BME280;3872;47.902;8.162;2024-03-25T01:39:17;91156.72;;;8.70;56.62
7660;BME280;3872;47.902;8.162;2024-03-25T01:41:45;91145.91;;;8.94;56.17
7660;BME280;3872;47.902;8.162;2024-03-25T01:44:11;91140.38;;;8.73;56.79
7660;BME280;3872;47.902;8.162;2024-03-25T01:46:38;91138.88;;;7.64;60.81
7660;BME280;3872;47.902;8.162;2024-03-25T01:49:04;91142.16;;;6.88;66.21
7660;BME280;3872;47.902;8.162;2024-03-25T01:51:30;91133.00;;;8.31;59.29
7660;BME280;3872;47.902;8.162;2024-03-25T01:53:58;91134.41;;;7.51;61.93
7660;BME280;3872;47.902;8.162;2024-03-25T01:56:25;91123.25;;;7.32;63.17
7660;BME280;3872;47.902;8.162;2024-03-25T01:58:53;91133.28;;;6.70;64.80
7660;BME280;3872;47.902;8.162;2024-03-25T02:01:21;91127.00;;;6.71;65.16
7660;BME280;3872;47.902;8.162;2024-03-25T02:03:47;91120.81;;;7.63;60.93
7660;BME280;3872;47.902;8.162;2024-03-25T02:06:16;91113.88;;;7.94;57.68
7660;BME280;3872;47.902;8.162;2024-03-25T02:08:43;91125.03;;;8.22;57.37
7660;BME280;3872;47.902;8.162;2024-03-25T02:11:10;91122.06;;;8.15;57.36
7660;BME280;3872;47.902;8.162;2024-03-25T02:13:36;91124.44;;;7.26;60.62
7660;BME280;3872;47.902;8.162;2024-03-25T02:16:05;91119.00;;;7.50;60.41
7660;BME280;3872;47.902;8.162;2024-03-25T02:18:32;91123.31;;;7.81;59.18
7660;BME280;3872;47.902;8.162;2024-03-25T02:20:59;91118.41;;;7.66;59.21
7660;BME280;3872;47.902;8.162;2024-03-25T02:23:25;91119.09;;;6.90;63.60
7660;BME280;3872;47.902;8.162;2024-03-25T02:25:53;91116.91;;;7.24;62.38
7660;BME280;3872;47.902;8.162;2024-03-25T02:28:20;91122.47;;;6.90;63.41
7660;BME280;3872;47.902;8.162;2024-03-25T02:30:47;91124.00;;;6.64;65.66
7660;BME280;3872;47.902;8.162;2024-03-25T02:33:13;91125.25;;;6.53;66.03
7660;BME280;3872;47.902;8.162;2024-03-25T02:35:41;91120.91;;;6.76;64.70
7660;BME280;3872;47.902;8.162;2024-03-25T02:38:08;91120.66;;;7.45;62.37
7660;BME280;3872;47.902;8.162;2024-03-25T02:40:35;91124.03;;;8.09;58.40
7660;BME280;3872;47.902;8.162;2024-03-25T02:43:04;91121.81;;;6.98;64.53
7660;BME280;3872;47.902;8.162;2024-03-25T02:45:32;91118.47;;;8.11;59.29
7660;BME280;3872;47.902;8.162;2024-03-25T02:47:58;91112.75;;;8.45;57.05
7660;BME280;3872;47.902;8.162;2024-03-25T02:50:25;91113.41;;;8.50;56.66
7660;BME280;3872;47.902;8.162;2024-03-25T02:52:50;91100.03;;;8.16;56.63
7660;BME280;3872;47.902;8.162;2024-03-25T02:55:17;91105.38;;;8.11;57.07
7660;BME280;3872;47.902;8.162;2024-03-25T02:57:43;91108.41;;;7.55;61.62
7660;BME280;3872;47.902;8.162;2024-03-25T03:00:12;91108.16;;;7.29;61.91
7660;BME280;3872;47.902;8.162;2024-03-25T03:02:38;91108.00;;;7.75;60.52
7660;BME280;3872;47.902;8.162;2024-03-25T03:05:05;91110.75;;;8.28;57.70
7660;BME280;3872;47.902;8.162;2024-03-25T03:07:31;91112.50;;;6.92;63.77
7660;BME280;3872;47.902;8.162;2024-03-25T03:09:58;91106.59;;;7.91;59.38
7660;BME280;3872;47.902;8.162;2024-03-25T03:12:24;91106.84;;;7.67;59.42
7660;BME280;3872;47.902;8.162;2024-03-25T03:14:51;91093.81;;;7.13;60.57
7660;BME280;3872;47.902;8.162;2024-03-25T03:17:18;91095.94;;;6.97;61.62
7660;BME280;3872;47.902;8.162;2024-03-25T03:19:45;91091.66;;;7.56;59.70
7660;BME280;3872;47.902;8.162;2024-03-25T03:22:10;91096.59;;;7.57;59.55
7660;BME280;3872;47.902;8.162;2024-03-25T03:24:37;91090.75;;;7.74;58.63
7660;BME280;3872;47.902;8.162;2024-03-25T03:27:03;91082.25;;;8.13;55.84
7660;BME280;3872;47.902;8.162;2024-03-25T03:29:29;91084.47;;;7.47;57.67
7660;BME280;3872;47.902;8.162;2024-03-25T03:31:55;91089.22;;;7.95;56.72
7660;BME280;3872;47.902;8.162;2024-03-25T03:34:23;91094.53;;;7.68;56.23
7660;BME280;3872;47.902;8.162;2024-03-25T03:36:49;91095.84;;;7.43;57.54
7660;BME280;3872;47.902;8.162;2024-03-25T03:39:15;91081.41;;;7.81;57.77
7660;BME280;3872;47.902;8.162;2024-03-25T03:41:41;91073.16;;;8.10;56.10
7660;BME280;3872;47.902;8.162;2024-03-25T03:44:07;91075.22;;;7.77;56.85
7660;BME280;3872;47.902;8.162;2024-03-25T03:46:34;91068.03;;;8.05;56.49
7660;BME280;3872;47.902;8.162;2024-03-25T03:49:01;91066.50;;;7.68;56.54
7660;BME280;3872;47.902;8.162;2024-03-25T03:51:28;91065.50;;;7.28;58.17
7660;BME280;3872;47.902;8.162;2024-03-25T03:53:55;91058.91;;;7.44;57.17
7660;BME280;3872;47.902;8.162;2024-03-25T03:56:21;91072.06;;;7.67;57.02
7660;BME280;3872;47.902;8.162;2024-03-25T03:58:47;91068.13;;;7.78;55.00
7660;BME280;3872;47.902;8.162;2024-03-25T04:01:14;91072.69;;;7.23;56.31
7660;BME280;3872;47.902;8.162;2024-03-25T04:03:41;91070.16;;;7.45;55.93
7660;BME280;3872;47.902;8.162;2024-03-25T04:06:10;91054.53;;;7.40;57.78
7660;BME280;3872;47.902;8.162;2024-03-25T04:08:39;91059.72;;;7.31;58.06
7660;BME280;3872;47.902;8.162;2024-03-25T04:11:05;91067.63;;;6.58;60.93
7660;BME280;3872;47.902;8.162;2024-03-25T04:13:32;91068.13;;;7.28;58.08
7660;BME280;3872;47.902;8.162;2024-03-25T04:16:01;91064.66;;;6.78;58.63
7660;BME280;3872;47.902;8.162;2024-03-25T04:18:29;91064.44;;;6.61;59.84
7660;BME280;3872;47.902;8.162;2024-03-25T04:20:55;91066.03;;;7.17;55.99
7660;BME280;3872;47.902;8.162;2024-03-25T04:23:21;91067.16;;;6.56;57.40
7660;BME280;3872;47.902;8.162;2024-03-25T04:25:49;91071.06;;;6.99;56.29
7660;BME280;3872;47.902;8.162;2024-03-25T04:28:16;91066.03;;;7.17;55.64
7660;BME280;3872;47.902;8.162;2024-03-25T04:30:42;91064.94;;;7.31;54.76
7660;BME280;3872;47.902;8.162;2024-03-25T04:33:08;91069.78;;;6.83;56.44
7660;BME280;3872;47.902;8.162;2024-03-25T04:35:34;91067.66;;;6.85;56.69
7660;BME280;3872;47.902;8.162;2024-03-25T04:38:01;91061.88;;;6.88;55.70
7660;BME280;3872;47.902;8.162;2024-03-25T04:40:26;91066.19;;;6.65;56.35
7660;BME280;3872;47.902;8.162;2024-03-25T04:42:53;91070.47;;;5.40;61.32
7660;BME280;3872;47.902;8.162;2024-03-25T04:45:19;91066.03;;;4.98;64.68
7660;BME280;3872;47.902;8.162;2024-03-25T04:47:44;91068.56;;;5.65;61.83
7660;BME280;3872;47.902;8.162;2024-03-25T04:50:10;91068.56;;;5.65;61.73
7660;BME280;3872;47.902;8.162;2024-03-25T04:52:36;91066.53;;;5.43;61.85
7660;BME280;3872;47.902;8.162;2024-03-25T04:55:01;91061.38;;;5.75;61.25
7660;BME280;3872;47.902;8.162;2024-03-25T04:57:27;91069.94;;;6.13;60.06
7660;BME280;3872;47.902;8.162;2024-03-25T04:59:55;91062.28;;;5.84;60.85
7660;BME280;3872;47.902;8.162;2024-03-25T05:02:20;91070.09;;;6.22;58.34
7660;BME280;3872;47.902;8.162;2024-03-25T05:04:46;91062.16;;;6.27;56.57
7660;BME280;3872;47.902;8.162;2024-03-25T05:07:12;91065.75;;;6.31;56.53
7660;BME280;3872;47.902;8.162;2024-03-25T05:09:37;91067.75;;;6.53;56.32
7660;BME280;3872;47.902;8.162;2024-03-25T05:12:03;91066.81;;;5.98;57.14
7660;BME280;3872;47.902;8.162;2024-03-25T05:14:30;91074.34;;;5.99;57.50
7660;BME280;3872;47.902;8.162;2024-03-25T05:16:57;91076.47;;;5.60;58.80
7660;BME280;3872;47.902;8.162;2024-03-25T05:19:23;91081.34;;;5.66;59.28
7660;BME280;3872;47.902;8.162;2024-03-25T05:21:49;91077.06;;;5.94;57.60
7660;BME280;3872;47.902;8.162;2024-03-25T05:24:14;91080.69;;;5.56;59.37
7660;BME280;3872;47.902;8.162;2024-03-25T05:26:40;91068.78;;;5.87;57.11
7660;BME280;3872;47.902;8.162;2024-03-25T05:29:06;91074.22;;;5.72;58.32
7660;BME280;3872;47.902;8.162;2024-03-25T05:31:32;91080.91;;;5.40;60.57
7660;BME280;3872;47.902;8.162;2024-03-25T05:33:59;91084.00;;;5.42;60.45
7660;BME280;3872;47.902;8.162;2024-03-25T05:36:24;91079.03;;;6.02;57.88
7660;BME280;3872;47.902;8.162;2024-03-25T05:38:50;91073.47;;;6.22;56.38
7660;BME280;3872;47.902;8.162;2024-03-25T05:41:15;91079.00;;;5.83;58.20
7660;BME280;3872;47.902;8.162;2024-03-25T05:43:41;91080.34;;;5.81;57.12
7660;BME280;3872;47.902;8.162;2024-03-25T05:46:07;91083.25;;;5.79;57.21
7660;BME280;3872;47.902;8.162;2024-03-25T05:48:32;91080.78;;;5.32;59.44
7660;BME280;3872;47.902;8.162;2024-03-25T05:51:00;91082.28;;;5.94;57.81
7660;BME280;3872;47.902;8.162;2024-03-25T05:53:26;91076.53;;;5.17;61.03
7660;BME280;3872;47.902;8.162;2024-03-25T05:55:52;91080.16;;;4.73;65.87
7660;BME280;3872;47.902;8.162;2024-03-25T05:58:18;91082.69;;;5.45;62.63
7660;BME280;3872;47.902;8.162;2024-03-25T06:00:46;91086.34;;;6.00;59.05
7660;BME280;3872;47.902;8.162;2024-03-25T06:03:12;91081.31;;;5.85;57.73
7660;BME280;3872;47.902;8.162;2024-03-25T06:05:39;91080.22;;;5.91;57.69
7660;BME280;3872;47.902;8.162;2024-03-25T06:08:07;91090.72;;;5.30;59.30
7660;BME280;3872;47.902;8.162;2024-03-25T06:10:37;91080.03;;;5.26;58.16
7660;BME280;3872;47.902;8.162;2024-03-25T06:13:03;91095.31;;;5.38;59.14
7660;BME280;3872;47.902;8.162;2024-03-25T06:15:29;91096.56;;;5.40;57.42
7660;BME280;3872;47.902;8.162;2024-03-25T06:17:54;91085.84;;;4.52;62.80
7660;BME280;3872;47.902;8.162;2024-03-25T06:20:20;91089.03;;;5.39;59.21
7660;BME280;3872;47.902;8.162;2024-03-25T06:22:46;91083.03;;;5.57;57.93
7660;BME280;3872;47.902;8.162;2024-03-25T06:25:13;91080.28;;;5.86;56.01
7660;BME280;3872;47.902;8.162;2024-03-25T06:27:39;91080.16;;;5.96;55.79
7660;BME280;3872;47.902;8.162;2024-03-25T06:30:05;91072.44;;;6.05;56.15
7660;BME280;3872;47.902;8.162;2024-03-25T06:32:46;91081.53;;;5.70;56.59
7660;BME280;3872;47.902;8.162;2024-03-25T06:35:30;91071.75;;;5.80;58.04
7660;BME280;3872;47.902;8.162;2024-03-25T06:37:55;91076.88;;;5.48;60.49
7660;BME280;3872;47.902;8.162;2024-03-25T06:40:22;91063.03;;;6.22;58.08
7660;BME280;3872;47.902;8.162;2024-03-25T06:42:48;91066.25;;;5.26;61.57
7660;BME280;3872;47.902;8.162;2024-03-25T06:45:14;91054.56;;;6.12;59.53
7660;BME280;3872;47.902;8.162;2024-03-25T06:47:40;91051.63;;;5.81;60.00
7660;BME280;3872;47.902;8.162;2024-03-25T06:50:06;91059.31;;;6.10;59.35
7660;BME280;3872;47.902;8.162;2024-03-25T06:52:32;91053.19;;;6.01;59.59
7660;BME280;3872;47.902;8.162;2024-03-25T06:54:58;91033.44;;;6.54;58.96
7660;BME280;3872;47.902;8.162;2024-03-25T06:57:25;91042.31;;;6.26;60.21
7660;BME280;3872;47.902;8.162;2024-03-25T06:59:51;91026.09;;;6.84;59.21
7660;BME280;3872;47.902;8.162;2024-03-25T07:02:16;91028.94;;;6.60;59.31
7660;BME280;3872;47.902;8.162;2024-03-25T07:04:42;91023.97;;;6.72;58.93
7660;BME280;3872;47.902;8.162;2024-03-25T07:07:08;91023.94;;;7.27;56.07
7660;BME280;3872;47.902;8.162;2024-03-25T07:09:33;91019.03;;;6.98;57.27
7660;BME280;3872;47.902;8.162;2024-03-25T07:11:59;91023.72;;;7.37;56.16
7660;BME280;3872;47.902;8.162;2024-03-25T07:14:26;91020.66;;;7.21;57.11
7660;BME280;3872;47.902;8.162;2024-03-25T07:16:52;91020.44;;;7.31;57.33
7660;BME280;3872;47.902;8.162;2024-03-25T07:19:17;91019.00;;;7.83;55.34
7660;BME280;3872;47.902;8.162;2024-03-25T07:21:43;91015.41;;;8.15;54.44
7660;BME280;3872;47.902;8.162;2024-03-25T07:24:09;91009.31;;;7.84;56.59
7660;BME280;3872;47.902;8.162;2024-03-25T07:26:34;91008.06;;;7.59;57.43
7660;BME280;3872;47.902;8.162;2024-03-25T07:29:00;91003.03;;;7.13;59.68
7660;BME280;3872;47.902;8.162;2024-03-25T07:31:27;90998.72;;;8.34;55.38
7660;BME280;3872;47.902;8.162;2024-03-25T07:33:52;91009.44;;;7.79;57.97
7660;BME280;3872;47.902;8.162;2024-03-25T07:36:18;91012.41;;;8.08;57.02
7660;BME280;3872;47.902;8.162;2024-03-25T07:38:44;91000.38;;;8.30;57.21
7660;BME280;3872;47.902;8.162;2024-03-25T07:41:09;90994.88;;;8.31;57.15
7660;BME280;3872;47.902;8.162;2024-03-25T07:43:35;91004.66;;;8.87;54.26
7660;BME280;3872;47.902;8.162;2024-03-25T07:46:01;90995.88;;;8.92;55.20
7660;BME280;3872;47.902;8.162;2024-03-25T07:48:28;90997.84;;;9.43;53.06
7660;BME280;3872;47.902;8.162;2024-03-25T07:50:54;91001.53;;;10.02;51.47
7660;BME280;3872;47.902;8.162;2024-03-25T07:53:19;90990.88;;;9.99;51.54
7660;BME280;3872;47.902;8.162;2024-03-25T07:55:45;90979.75;;;9.93;51.21
7660;BME280;3872;47.902;8.162;2024-03-25T07:58:10;90986.53;;;10.11;50.81
7660;BME280;3872;47.902;8.162;2024-03-25T08:00:37;90977.59;;;10.68;49.39
7660;BME280;3872;47.902;8.162;2024-03-25T08:03:03;90977.75;;;10.71;49.46
7660;BME280;3872;47.902;8.162;2024-03-25T08:05:30;90980.03;;;11.11;48.60
7660;BME280;3872;47.902;8.162;2024-03-25T08:07:56;90971.91;;;10.57;51.13
7660;BME280;3872;47.902;8.162;2024-03-25T08:10:22;90979.44;;;10.20;52.44
7660;BME280;3872;47.902;8.162;2024-03-25T08:12:47;90965.44;;;10.46;52.38
7660;BME280;3872;47.902;8.162;2024-03-25T08:15:13;90956.97;;;10.78;50.53
7660;BME280;3872;47.902;8.162;2024-03-25T08:17:39;90970.25;;;10.82;50.70
7660;BME280;3872;47.902;8.162;2024-03-25T08:20:05;90965.53;;;11.75;48.92
7660;BME280;3872;47.902;8.162;2024-03-25T08:22:34;90952.56;;;13.06;45.87
7660;BME280;3872;47.902;8.162;2024-03-25T08:24:59;90946.84;;;13.16;44.82
7660;BME280;3872;47.902;8.162;2024-03-25T08:27:25;90942.09;;;13.86;43.88
7660;BME280;3872;47.902;8.162;2024-03-25T08:29:51;90948.03;;;13.95;43.82
7660;BME280;3872;47.902;8.162;2024-03-25T08:32:16;90945.09;;;12.83;45.81
7660;BME280;3872;47.902;8.162;2024-03-25T08:34:42;90940.19;;;13.58;44.95
7660;BME280;3872;47.902;8.162;2024-03-25T08:37:08;90924.13;;;13.63;43.88
7660;BME280;3872;47.902;8.162;2024-03-25T08:39:35;90926.59;;;13.84;43.72
7660;BME280;3872;47.902;8.162;2024-03-25T08:42:01;90925.38;;;11.79;46.94
7660;BME280;3872;47.902;8.162;2024-03-25T08:44:26;90924.31;;;11.71;48.41
7660;BME280;3872;47.902;8.162;2024-03-25T08:46:52;90919.19;;;11.74;47.73
7660;BME280;3872;47.902;8.162;2024-03-25T08:49:18;90921.75;;;11.21;45.45
7660;BME280;3872;47.902;8.162;2024-03-25T08:51:43;90921.88;;;12.77;43.69
7660;BME280;3872;47.902;8.162;2024-03-25T08:54:09;90917.13;;;12.82;43.63
7660;BME280;3872;47.902;8.162;2024-03-25T08:56:36;90912.63;;;12.71;42.61
7660;BME280;3872;47.902;8.162;2024-03-25T08:59:02;90921.63;;;11.59;42.27
7660;BME280;3872;47.902;8.162;2024-03-25T09:01:27;90918.41;;;11.74;41.30
7660;BME280;3872;47.902;8.162;2024-03-25T09:03:53;90914.38;;;11.76;41.54
7660;BME280;3872;47.902;8.162;2024-03-25T09:06:19;90917.13;;;11.59;43.61
7660;BME280;3872;47.902;8.162;2024-03-25T09:08:44;90903.25;;;12.04;42.65
7660;BME280;3872;47.902;8.162;2024-03-25T09:11:25;90904.03;;;12.86;40.21
7660;BME280;3872;47.902;8.162;2024-03-25T09:13:52;90900.41;;;12.90;40.95
7660;BME280;3872;47.902;8.162;2024-03-25T09:16:18;90903.56;;;11.49;43.05
7660;BME280;3872;47.902;8.162;2024-03-25T09:18:45;90904.13;;;12.65;40.77
7660;BME280;3872;47.902;8.162;2024-03-25T09:21:11;90892.25;;;12.35;39.79
7660;BME280;3872;47.902;8.162;2024-03-25T09:23:36;90896.75;;;13.71;37.59
7660;BME280;3872;47.902;8.162;2024-03-25T09:26:02;90896.44;;;12.60;40.26
7660;BME280;3872;47.902;8.162;2024-03-25T09:28:28;90893.31;;;12.22;40.86
7660;BME280;3872;47.902;8.162;2024-03-25T09:30:55;90887.75;;;11.90;42.00
7660;BME280;3872;47.902;8.162;2024-03-25T09:33:21;90900.53;;;10.96;44.55
7660;BME280;3872;47.902;8.162;2024-03-25T09:35:47;90899.66;;;11.75;41.00
7660;BME280;3872;47.902;8.162;2024-03-25T09:38:13;90887.78;;;11.49;42.01
7660;BME280;3872;47.902;8.162;2024-03-25T09:40:40;90894.91;;;11.07;43.04
7660;BME280;3872;47.902;8.162;2024-03-25T09:43:12;90886.34;;;11.72;42.21
7660;BME280;3872;47.902;8.162;2024-03-25T09:45:40;90884.06;;;11.29;42.50
7660;BME280;3872;47.902;8.162;2024-03-25T09:48:07;90884.31;;;11.15;41.73
7660;BME280;3872;47.902;8.162;2024-03-25T09:50:34;90887.94;;;11.23;42.86
7660;BME280;3872;47.902;8.162;2024-03-25T09:53:00;90882.16;;;12.73;39.60
7660;BME280;3872;47.902;8.162;2024-03-25T09:55:27;90876.25;;;13.81;38.67
7660;BME280;3872;47.902;8.162;2024-03-25T09:57:53;90870.41;;;14.46;39.23
7660;BME280;3872;47.902;8.162;2024-03-25T10:00:19;90874.03;;;12.78;40.13
7660;BME280;3872;47.902;8.162;2024-03-25T10:02:46;90872.91;;;12.79;42.19
7660;BME280;3872;47.902;8.162;2024-03-25T10:05:13;90869.25;;;12.23;44.34
7660;BME280;3872;47.902;8.162;2024-03-25T10:07:39;90861.78;;;13.90;40.57
7660;BME280;3872;47.902;8.162;2024-03-25T10:10:05;90861.78;;;13.90;40.00
7660;BME280;3872;47.902;8.162;2024-03-25T10:12:31;90859.13;;;13.62;40.06
7660;BME280;3872;47.902;8.162;2024-03-25T10:14:57;90866.84;;;13.03;40.91
7660;BME280;3872;47.902;8.162;2024-03-25T10:17:23;90856.84;;;13.21;39.91
7660;BME280;3872;47.902;8.162;2024-03-25T10:19:49;90847.03;;;12.36;40.27
7660;BME280;3872;47.902;8.162;2024-03-25T10:22:16;90851.06;;;13.71;41.10
7660;BME280;3872;47.902;8.162;2024-03-25T10:24:43;90851.56;;;14.04;39.90
7660;BME280;3872;47.902;8.162;2024-03-25T10:27:17;90856.06;;;12.23;41.07
7660;BME280;3872;47.902;8.162;2024-03-25T10:29:44;90844.53;;;12.28;42.36
7660;BME280;3872;47.902;8.162;2024-03-25T10:32:09;90841.34;;;12.59;41.28
7660;BME280;3872;47.902;8.162;2024-03-25T10:34:37;90838.72;;;14.34;39.08
7660;BME280;3872;47.902;8.162;2024-03-25T10:37:04;90824.09;;;13.38;41.68
7660;BME280;3872;47.902;8.162;2024-03-25T10:39:32;90832.81;;;11.92;42.20
7660;BME280;3872;47.902;8.162;2024-03-25T10:41:59;90825.66;;;12.50;42.43
7660;BME280;3872;47.902;8.162;2024-03-25T10:44:26;90814.88;;;14.19;39.22
7660;BME280;3872;47.902;8.162;2024-03-25T10:46:57;90815.03;;;14.10;39.11
7660;BME280;3872;47.902;8.162;2024-03-25T10:49:32;90819.16;;;13.64;41.34
7660;BME280;3872;47.902;8.162;2024-03-25T10:52:00;90802.06;;;14.05;39.46
7660;BME280;3872;47.902;8.162;2024-03-25T10:54:29;90794.63;;;13.95;39.56
7660;BME280;3872;47.902;8.162;2024-03-25T10:56:57;90787.00;;;14.53;40.01
7660;BME280;3872;47.902;8.162;2024-03-25T10:59:24;90784.47;;;14.91;37.61
7660;BME280;3872;47.902;8.162;2024-03-25T11:01:51;90785.56;;;14.39;38.61
7660;BME280;3872;47.902;8.162;2024-03-25T11:04:17;90772.84;;;17.43;34.91
7660;BME280;3872;47.902;8.162;2024-03-25T11:06:43;90771.16;;;17.01;29.99
7660;BME280;3872;47.902;8.162;2024-03-25T11:09:09;90773.47;;;17.33;32.30
7660;BME280;3872;47.902;8.162;2024-03-25T11:11:36;90763.84;;;16.95;32.21
7660;BME280;3872;47.902;8.162;2024-03-25T11:14:04;90740.75;;;18.36;31.22
7660;BME280;3872;47.902;8.162;2024-03-25T11:16:30;90748.28;;;16.44;33.87
7660;BME280;3872;47.902;8.162;2024-03-25T11:19:00;90740.09;;;16.30;34.03
7660;BME280;3872;47.902;8.162;2024-03-25T11:21:27;90732.84;;;16.27;33.77
7660;BME280;3872;47.902;8.162;2024-03-25T11:23:54;90737.28;;;17.25;33.21
7660;BME280;3872;47.902;8.162;2024-03-25T11:26:21;90734.91;;;15.11;35.08
7660;BME280;3872;47.902;8.162;2024-03-25T11:28:47;90731.06;;;16.34;34.81
7660;BME280;3872;47.902;8.162;2024-03-25T11:31:14;90722.75;;;17.48;30.15
7660;BME280;3872;47.902;8.162;2024-03-25T11:33:40;90719.50;;;16.23;32.22
7660;BME280;3872;47.902;8.162;2024-03-25T11:36:07;90710.66;;;18.32;30.67
7660;BME280;3872;47.902;8.162;2024-03-25T11:38:32;90711.16;;;17.30;31.20
7660;BME280;3872;47.902;8.162;2024-03-25T11:40:59;90704.13;;;17.48;33.82
7660;BME280;3872;47.902;8.162;2024-03-25T11:43:25;90695.75;;;16.83;32.82
7660;BME280;3872;47.902;8.162;2024-03-25T11:45:51;90685.13;;;18.75;29.76
7660;BME280;3872;47.902;8.162;2024-03-25T11:48:18;90687.34;;;18.18;28.77
7660;BME280;3872;47.902;8.162;2024-03-25T11:50:45;90678.69;;;17.84;28.57
7660;BME280;3872;47.902;8.162;2024-03-25T11:53:16;90680.00;;;18.52;29.54
7660;BME280;3872;47.902;8.162;2024-03-25T11:55:46;90672.81;;;18.56;28.34
7660;BME280;3872;47.902;8.162;2024-03-25T11:58:12;90671.66;;;18.06;29.08
7660;BME280;3872;47.902;8.162;2024-03-25T12:00:43;90667.88;;;15.72;31.85
7660;BME280;3872;47.902;8.162;2024-03-25T12:03:11;90662.34;;;18.30;29.22
7660;BME280;3872;47.902;8.162;2024-03-25T12:05:40;90641.44;;;18.94;28.05
7660;BME280;3872;47.902;8.162;2024-03-25T12:08:08;90644.91;;;17.55;29.97
7660;BME280;3872;47.902;8.162;2024-03-25T12:10:34;90636.13;;;19.04;27.36
7660;BME280;3872;47.902;8.162;2024-03-25T12:13:19;90641.34;;;20.12;27.24
7660;BME280;3872;47.902;8.162;2024-03-25T12:15:45;90633.25;;;18.58;27.65
7660;BME280;3872;47.902;8.162;2024-03-25T12:18:10;90625.44;;;17.81;27.85
7660;BME280;3872;47.902;8.162;2024-03-25T12:20:40;90632.34;;;17.15;27.90
7660;BME280;3872;47.902;8.162;2024-03-25T12:23:06;90642.16;;;15.11;29.04
7660;BME280;3872;47.902;8.162;2024-03-25T12:25:32;90632.47;;;16.92;28.72
7660;BME280;3872;47.902;8.162;2024-03-25T12:27:58;90622.59;;;18.58;27.95
7660;BME280;3872;47.902;8.162;2024-03-25T12:30:24;90615.66;;;18.47;27.63
7660;BME280;3872;47.902;8.162;2024-03-25T12:32:50;90616.56;;;20.40;26.39
7660;BME280;3872;47.902;8.162;2024-03-25T12:35:17;90610.44;;;19.86;25.63
7660;BME280;3872;47.902;8.162;2024-03-25T12:37:47;90593.78;;;18.85;26.79
7660;BME280;3872;47.902;8.162;2024-03-25T12:40:24;90599.47;;;18.84;26.01
7660;BME280;3872;47.902;8.162;2024-03-25T12:42:51;90592.13;;;19.92;26.13
7660;BME280;3872;47.902;8.162;2024-03-25T12:45:18;90582.63;;;20.37;24.66
7660;BME280;3872;47.902;8.162;2024-03-25T12:47:43;90572.47;;;18.85;26.65
7660;BME280;3872;47.902;8.162;2024-03-25T12:50:09;90569.16;;;17.38;30.16
7660;BME280;3872;47.902;8.162;2024-03-25T12:52:35;90574.56;;;17.89;28.73
7660;BME280;3872;47.902;8.162;2024-03-25T12:55:02;90557.78;;;19.44;24.70
7660;BME280;3872;47.902;8.162;2024-03-25T12:57:28;90568.00;;;19.17;25.54
7660;BME280;3872;47.902;8.162;2024-03-25T12:59:53;90563.84;;;19.38;26.75
7660;BME280;3872;47.902;8.162;2024-03-25T13:02:19;90553.22;;;19.70;25.22
7660;BME280;3872;47.902;8.162;2024-03-25T13:04:44;90558.75;;;18.90;25.47
7660;BME280;3872;47.902;8.162;2024-03-25T13:07:10;90549.63;;;18.91;25.28
7660;BME280;3872;47.902;8.162;2024-03-25T13:09:36;90547.78;;;17.24;28.48
7660;BME280;3872;47.902;8.162;2024-03-25T13:12:03;90544.03;;;19.35;27.46
7660;BME280;3872;47.902;8.162;2024-03-25T13:14:29;90528.38;;;19.16;27.66
7660;BME280;3872;47.902;8.162;2024-03-25T13:16:55;90535.84;;;20.91;26.16
7660;BME280;3872;47.902;8.162;2024-03-25T13:19:21;90541.78;;;19.98;26.38
7660;BME280;3872;47.902;8.162;2024-03-25T13:21:47;90540.94;;;20.57;24.20
7660;BME280;3872;47.902;8.162;2024-03-25T13:24:12;90539.50;;;19.46;24.78